createdAt,value
2018-04-15T00:01:03.097Z,79.27
2018-04-15T00:02:13.263Z,79.27
2018-04-15T00:03:23.438Z,79.27
2018-04-15T00:04:33.670Z,79.36
2018-04-15T00:05:43.632Z,79.36
2018-04-15T00:06:53.762Z,79.56
2018-04-15T00:08:03.931Z,79.56
2018-04-15T00:09:14.072Z,79.56
2018-04-15T00:10:24.223Z,79.17
2018-04-15T00:11:34.415Z,79.17
2018-04-15T00:12:44.611Z,79.36
2018-04-15T00:13:54.900Z,79.36
2018-04-15T00:15:05.116Z,79.46
2018-04-15T00:16:15.259Z,79.46
2018-04-15T00:17:25.764Z,79.36
2018-04-15T00:18:35.944Z,79.27
2018-04-15T00:19:46.086Z,79.56
2018-04-15T00:20:55.774Z,79.56
2018-04-15T00:22:06.001Z,79.17
2018-04-15T00:23:16.136Z,79.27
2018-04-15T00:24:26.351Z,79.36
2018-04-15T00:25:36.792Z,79.85
2018-04-15T00:26:46.955Z,79.75
2018-04-15T00:27:57.147Z,79.46
2018-04-15T00:29:07.375Z,79.36
2018-04-15T00:30:17.602Z,79.27
2018-04-15T00:31:27.785Z,79.46
2018-04-15T00:32:37.998Z,79.27
2018-04-15T00:33:48.155Z,79.36
2018-04-15T00:34:58.369Z,79.56
2018-04-15T00:36:08.518Z,79.36
2018-04-15T00:37:18.663Z,79.36
2018-04-15T00:38:28.796Z,79.36
2018-04-15T00:39:38.935Z,79.46
2018-04-15T00:40:48.734Z,79.56
2018-04-15T00:41:58.878Z,79.46
2018-04-15T00:43:09.045Z,79.17
2018-04-15T00:44:19.286Z,79.56
2018-04-15T00:45:29.202Z,80.22
2018-04-15T00:46:39.135Z,79.75
2018-04-15T00:47:49.291Z,79.99
2018-04-15T00:48:59.447Z,80.38
2018-04-15T00:50:09.572Z,80.38
2018-04-15T00:51:19.743Z,80.76
2018-04-15T00:52:29.978Z,80.47
2018-04-15T00:53:40.138Z,80.57
2018-04-15T00:54:50.318Z,80.76
2018-04-15T00:56:00.490Z,80.95
2018-04-15T00:57:10.663Z,80.76
2018-04-15T00:58:20.868Z,80.47
2018-04-15T00:59:31.176Z,80.38
2018-04-15T01:00:41.372Z,80.66
2018-04-15T01:01:51.646Z,80.66
2018-04-15T01:03:01.810Z,81.24
2018-04-15T01:04:12.027Z,81.43
2018-04-15T01:05:22.199Z,81.04
2018-04-15T01:06:32.621Z,81.43
2018-04-15T01:07:42.822Z,81.2
2018-04-15T01:08:52.951Z,81.86
2018-04-15T01:10:03.176Z,81.67
2018-04-15T01:11:13.436Z,81.67
2018-04-15T01:12:23.657Z,81.96
2018-04-15T01:13:33.837Z,82.43
2018-04-15T01:14:44.130Z,82.15
2018-04-15T01:15:54.364Z,82.15
2018-04-15T01:17:04.525Z,82.34
2018-04-15T01:18:14.746Z,82.53
2018-04-15T01:19:24.948Z,82.34
2018-04-15T01:20:35.187Z,82.24
2018-04-15T01:21:45.514Z,82.43
2018-04-15T01:22:55.644Z,82.53
2018-04-15T01:24:05.894Z,82.34
2018-04-15T01:25:15.796Z,82.53
2018-04-15T01:26:25.932Z,82.53
2018-04-15T01:27:36.101Z,82.63
2018-04-15T01:28:45.975Z,82.63
2018-04-15T01:29:56.142Z,82.53
2018-04-15T01:31:06.257Z,82.63
2018-04-15T01:32:16.391Z,82.72
2018-04-15T01:33:26.292Z,82.43
2018-04-15T01:34:36.443Z,82.72
2018-04-15T01:35:46.637Z,82.72
2018-04-15T01:36:56.823Z,82.53
2018-04-15T01:38:06.985Z,82.43
2018-04-15T01:39:17.147Z,82.43
2018-04-15T01:40:27.336Z,82.15
2018-04-15T01:41:37.460Z,82.34
2018-04-15T01:42:47.631Z,82.34
2018-04-15T01:43:57.750Z,82.43
2018-04-15T01:45:07.904Z,82.72
2018-04-15T01:46:18.151Z,82.72
2018-04-15T01:47:28.330Z,83.2
2018-04-15T01:48:38.540Z,83.48
2018-04-15T01:49:48.680Z,82.72
2018-04-15T01:50:58.881Z,82.82
2018-04-15T01:52:09.127Z,83.01
2018-04-15T01:53:19.468Z,83.11
2018-04-15T01:54:29.651Z,83.2
2018-04-15T01:55:39.863Z,82.53
2018-04-15T01:56:50.077Z,82.82
2018-04-15T01:58:00.256Z,82.82
2018-04-15T01:59:10.152Z,83.29
2018-04-15T02:00:19.938Z,83.2
2018-04-15T02:01:29.839Z,83.29
2018-04-15T02:02:39.995Z,83.39
2018-04-15T02:03:50.140Z,82.91
2018-04-15T02:05:00.333Z,83.2
2018-04-15T02:06:10.506Z,83.39
2018-04-15T02:07:20.663Z,83.2
2018-04-15T02:08:30.820Z,83.01
2018-04-15T02:09:40.972Z,83.01
2018-04-15T02:10:51.200Z,83.48
2018-04-15T02:12:01.087Z,83.29
2018-04-15T02:13:11.279Z,83.48
2018-04-15T02:14:21.569Z,83.48
2018-04-15T02:15:31.756Z,83.39
2018-04-15T02:16:41.941Z,82.91
2018-04-15T02:17:52.199Z,82.91
2018-04-15T02:19:02.345Z,83.01
2018-04-15T02:20:12.551Z,83.01
2018-04-15T02:21:22.446Z,83.29
2018-04-15T02:22:32.583Z,83.01
2018-04-15T02:23:42.745Z,83.2
2018-04-15T02:24:52.909Z,83.01
2018-04-15T02:26:03.134Z,83.01
2018-04-15T02:27:13.265Z,83.29
2018-04-15T02:28:23.406Z,83.01
2018-04-15T02:29:33.575Z,83.01
2018-04-15T02:30:43.773Z,83.01
2018-04-15T02:31:53.967Z,83.48
2018-04-15T02:33:04.143Z,83.29
2018-04-15T02:34:14.293Z,83.39
2018-04-15T02:35:24.447Z,83.11
2018-04-15T02:36:34.597Z,83.34
2018-04-15T02:37:44.828Z,82.95
2018-04-15T02:38:55.031Z,82.76
2018-04-15T02:40:05.339Z,82.72
2018-04-15T02:41:15.275Z,82.76
2018-04-15T02:42:25.055Z,82.72
2018-04-15T02:43:35.180Z,82.67
2018-04-15T02:44:45.359Z,82.53
2018-04-15T02:45:55.531Z,82.06
2018-04-15T02:47:05.434Z,82.63
2018-04-15T02:48:15.609Z,82.34
2018-04-15T02:49:25.780Z,82.67
2018-04-15T02:50:35.912Z,82.57
2018-04-15T02:51:46.051Z,82.95
2018-04-15T02:52:56.233Z,82.38
2018-04-15T02:54:06.499Z,82.34
2018-04-15T02:55:16.745Z,82.76
2018-04-15T02:56:26.970Z,82.57
2018-04-15T02:57:36.756Z,82.19
2018-04-15T02:58:46.936Z,82.29
2018-04-15T02:59:57.200Z,82.38
2018-04-15T03:01:07.427Z,82.09
2018-04-15T03:02:17.632Z,82.38
2018-04-15T03:03:27.898Z,81.71
2018-04-15T03:04:38.130Z,81.9
2018-04-15T03:05:48.020Z,81.62
2018-04-15T03:06:58.251Z,81.62
2018-04-15T03:08:08.444Z,81.24
2018-04-15T03:09:18.611Z,81.43
2018-04-15T03:10:28.787Z,81.62
2018-04-15T03:11:38.972Z,81.48
2018-04-15T03:12:49.144Z,81.2
2018-04-15T03:13:59.327Z,81.58
2018-04-15T03:15:09.563Z,81.86
2018-04-15T03:16:19.728Z,81.38
2018-04-15T03:17:29.881Z,81.62
2018-04-15T03:18:40.002Z,81.33
2018-04-15T03:19:50.178Z,81.29
2018-04-15T03:21:00.363Z,81.2
2018-04-15T03:22:10.245Z,81.58
2018-04-15T03:23:20.144Z,81.77
2018-04-15T03:24:30.287Z,81.77
2018-04-15T03:25:40.421Z,81.29
2018-04-15T03:26:50.574Z,81.77
2018-04-15T03:28:00.701Z,81.58
2018-04-15T03:29:10.867Z,81.29
2018-04-15T03:30:20.997Z,81.58
2018-04-15T03:31:31.191Z,81.77
2018-04-15T03:32:41.085Z,81.77
2018-04-15T03:33:51.278Z,81.67
2018-04-15T03:35:01.421Z,81.86
2018-04-15T03:36:11.591Z,81.67
2018-04-15T03:37:21.823Z,81.86
2018-04-15T03:38:31.969Z,81.67
2018-04-15T03:39:42.100Z,81.86
2018-04-15T03:40:52.229Z,81.77
2018-04-15T03:42:02.371Z,81.77
2018-04-15T03:43:12.513Z,81.77
2018-04-15T03:44:22.401Z,81.67
2018-04-15T03:45:32.597Z,81.67
2018-04-15T03:46:42.732Z,81.48
2018-04-15T03:47:52.926Z,81.86
2018-04-15T03:49:03.082Z,81.67
2018-04-15T03:50:13.336Z,81.77
2018-04-15T03:51:23.600Z,81.58
2018-04-15T03:52:33.792Z,81.58
2018-04-15T03:53:43.950Z,81.48
2018-04-15T03:54:54.084Z,81.48
2018-04-15T03:56:04.214Z,81.38
2018-04-15T03:57:14.345Z,81.38
2018-04-15T03:58:24.171Z,81.29
2018-04-15T03:59:34.308Z,81.58
2018-04-15T04:00:44.438Z,81.1
2018-04-15T04:01:54.579Z,81.2
2018-04-15T04:03:04.822Z,81.01
2018-04-15T04:04:15.109Z,80.91
2018-04-15T04:05:24.628Z,80.81
2018-04-15T04:06:34.763Z,80.91
2018-04-15T04:07:44.918Z,81.01
2018-04-15T04:08:55.042Z,81.01
2018-04-15T04:10:05.222Z,81.1
2018-04-15T04:11:15.394Z,81.2
2018-04-15T04:12:25.625Z,81.29
2018-04-15T04:13:35.807Z,81.2
2018-04-15T04:14:45.936Z,81.29
2018-04-15T04:15:56.112Z,81.2
2018-04-15T04:17:06.268Z,81.38
2018-04-15T04:18:16.240Z,81.2
2018-04-15T04:19:26.553Z,81.29
2018-04-15T04:20:36.718Z,80.91
2018-04-15T04:21:46.882Z,81.2
2018-04-15T04:22:57.023Z,81.01
2018-04-15T04:24:07.159Z,80.53
2018-04-15T04:25:17.419Z,81.38
2018-04-15T04:26:27.763Z,81.1
2018-04-15T04:27:38.611Z,81.29
2018-04-15T04:28:48.769Z,81.1
2018-04-15T04:29:58.898Z,80.53
2018-04-15T04:31:09.054Z,80.53
2018-04-15T04:32:18.932Z,80.62
2018-04-15T04:33:29.158Z,80.43
2018-04-15T04:34:39.318Z,80.33
2018-04-15T04:35:49.458Z,80.53
2018-04-15T04:36:59.619Z,81.01
2018-04-15T04:38:09.968Z,81.01
2018-04-15T04:39:20.135Z,81.2
2018-04-15T04:40:30.323Z,81.2
2018-04-15T04:41:40.547Z,81.38
2018-04-15T04:42:50.692Z,80.91
2018-04-15T04:44:00.847Z,81.1
2018-04-15T04:45:10.986Z,81.29
2018-04-15T04:46:21.120Z,81.2
2018-04-15T04:47:31.287Z,81.1
2018-04-15T04:48:41.429Z,81.01
2018-04-15T04:49:51.590Z,81.38
2018-04-15T04:51:01.699Z,81.01
2018-04-15T04:52:11.843Z,81.38
2018-04-15T04:53:22.040Z,81.38
2018-04-15T04:54:32.178Z,81.2
2018-04-15T04:55:42.395Z,81.2
2018-04-15T04:56:52.612Z,81.01
2018-04-15T04:58:02.813Z,81.1
2018-04-15T04:59:12.977Z,81.38
2018-04-15T05:00:23.239Z,81.38
2018-04-15T05:01:33.015Z,81.29
2018-04-15T05:02:43.244Z,81.48
2018-04-15T05:03:53.436Z,81.86
2018-04-15T05:05:03.333Z,81.58
2018-04-15T05:06:13.466Z,81.77
2018-04-15T05:07:23.583Z,81.86
2018-04-15T05:08:33.535Z,81.86
2018-04-15T05:09:43.646Z,81.86
2018-04-15T05:10:53.556Z,81.77
2018-04-15T05:12:03.690Z,81.48
2018-04-15T05:13:13.835Z,81.29
2018-04-15T05:14:24.039Z,81.48
2018-04-15T05:15:34.242Z,81.58
2018-04-15T05:16:44.500Z,81.77
2018-04-15T05:17:54.675Z,81.58
2018-04-15T05:19:04.872Z,81.77
2018-04-15T05:20:14.800Z,82.24
2018-04-15T05:21:24.930Z,82.06
2018-04-15T05:22:35.061Z,82.15
2018-04-15T05:23:45.218Z,82.24
2018-04-15T05:24:55.394Z,82.53
2018-04-15T05:26:05.691Z,82.34
2018-04-15T05:27:15.633Z,82.34
2018-04-15T05:28:25.766Z,82.34
2018-04-15T05:29:35.937Z,82.06
2018-04-15T05:30:46.108Z,82.34
2018-04-15T05:31:56.298Z,82.53
2018-04-15T05:33:06.186Z,82.34
2018-04-15T05:34:16.072Z,82.24
2018-04-15T05:35:26.265Z,82.82
2018-04-15T05:36:36.439Z,83.29
2018-04-15T05:37:46.580Z,83.2
2018-04-15T05:38:56.467Z,82.91
2018-04-15T05:40:06.676Z,83.2
2018-04-15T05:41:16.826Z,83.11
2018-04-15T05:42:27.027Z,83.2
2018-04-15T05:43:36.916Z,83.11
2018-04-15T05:44:47.119Z,83.48
2018-04-15T05:45:57.295Z,83.48
2018-04-15T05:47:07.477Z,83.11
2018-04-15T05:48:17.646Z,83.39
2018-04-15T05:49:27.814Z,83.58
2018-04-15T05:50:37.704Z,83.39
2018-04-15T05:51:47.852Z,83.29
2018-04-15T05:52:58.032Z,83.2
2018-04-15T05:54:08.340Z,83.39
2018-04-15T05:55:18.473Z,83.39
2018-04-15T05:56:28.638Z,83.29
2018-04-15T05:57:38.543Z,83.48
2018-04-15T05:58:48.445Z,83.2
2018-04-15T05:59:58.372Z,83.2
2018-04-15T06:01:08.287Z,82.95
2018-04-15T06:02:18.423Z,82.95
2018-04-15T06:03:28.570Z,82.76
2018-04-15T06:04:38.789Z,82.67
2018-04-15T06:05:48.931Z,83.05
2018-04-15T06:06:59.096Z,83.24
2018-04-15T06:08:09.273Z,82.95
2018-04-15T06:09:19.175Z,83.05
2018-04-15T06:10:29.329Z,83.05
2018-04-15T06:11:39.501Z,83.24
2018-04-15T06:12:49.755Z,82.76
2018-04-15T06:14:00.133Z,82.29
2018-04-15T06:15:10.259Z,82.19
2018-04-15T06:16:20.443Z,82.32
2018-04-15T06:17:30.574Z,82.23
2018-04-15T06:18:40.738Z,82.23
2018-04-15T06:19:50.912Z,82.23
2018-04-15T06:21:01.128Z,82.32
2018-04-15T06:22:11.281Z,82.14
2018-04-15T06:23:21.445Z,81.76
2018-04-15T06:24:31.657Z,82.14
2018-04-15T06:25:42.070Z,81.76
2018-04-15T06:26:52.232Z,81.37
2018-04-15T06:28:02.380Z,81.37
2018-04-15T06:29:12.543Z,81.41
2018-04-15T06:30:22.711Z,81.18
2018-04-15T06:31:32.886Z,81.03
2018-04-15T06:32:43.028Z,81.03
2018-04-15T06:33:53.225Z,80.74
2018-04-15T06:35:03.197Z,80.65
2018-04-15T06:36:13.358Z,80.36
2018-04-15T06:37:23.501Z,80.84
2018-04-15T06:38:33.700Z,80.27
2018-04-15T06:39:43.848Z,80.36
2018-04-15T06:40:53.738Z,80.36
2018-04-15T06:42:03.905Z,79.98
2018-04-15T06:43:14.059Z,80.02
2018-04-15T06:44:24.275Z,80.21
2018-04-15T06:45:34.441Z,80.02
2018-04-15T06:46:44.343Z,79.54
2018-04-15T06:47:54.530Z,79.83
2018-04-15T06:49:04.684Z,79.44
2018-04-15T06:50:14.887Z,79.16
2018-04-15T06:51:25.086Z,78.97
2018-04-15T06:52:35.260Z,78.78
2018-04-15T06:53:45.392Z,79.06
2018-04-15T06:54:55.554Z,79.16
2018-04-15T06:56:05.713Z,78.78
2018-04-15T06:57:15.825Z,78.68
2018-04-15T06:58:25.973Z,78.49
2018-04-15T06:59:36.143Z,78.49
2018-04-15T07:00:46.391Z,77.86
2018-04-15T07:01:56.549Z,78.24
2018-04-15T07:03:06.853Z,77.67
2018-04-15T07:04:17.080Z,77.28
2018-04-15T07:05:27.258Z,77.38
2018-04-15T07:06:37.458Z,77.19
2018-04-15T07:07:47.674Z,77.48
2018-04-15T07:08:57.850Z,77.19
2018-04-15T07:10:07.988Z,77.28
2018-04-15T07:11:18.168Z,77.23
2018-04-15T07:12:28.318Z,76.94
2018-04-15T07:13:38.471Z,76.56
2018-04-15T07:14:48.615Z,76.56
2018-04-15T07:15:58.786Z,76.56
2018-04-15T07:17:08.982Z,76.08
2018-04-15T07:18:19.156Z,76.46
2018-04-15T07:19:29.435Z,76.08
2018-04-15T07:20:39.734Z,75.6
2018-04-15T07:21:49.954Z,75.7
2018-04-15T07:23:00.110Z,75.6
2018-04-15T07:24:10.048Z,75.41
2018-04-15T07:25:20.190Z,75.31
2018-04-15T07:26:30.337Z,75.12
2018-04-15T07:27:40.535Z,75.02
2018-04-15T07:28:50.746Z,74.97
2018-04-15T07:30:00.967Z,75.54
2018-04-15T07:31:11.239Z,74.58
2018-04-15T07:32:21.444Z,74.68
2018-04-15T07:33:31.633Z,74.4
2018-04-15T07:34:41.898Z,74.58
2018-04-15T07:35:52.026Z,74.2
2018-04-15T07:37:02.253Z,74.33
2018-04-15T07:38:12.513Z,73.76
2018-04-15T07:39:22.759Z,72.99
2018-04-15T07:40:33.022Z,73.28
2018-04-15T07:41:43.291Z,73.09
2018-04-15T07:42:53.519Z,73.09
2018-04-15T07:44:03.806Z,73.19
2018-04-15T07:45:13.973Z,72.8
2018-04-15T07:46:24.126Z,72.52
2018-04-15T07:47:33.937Z,72.52
2018-04-15T07:48:44.133Z,72.45
2018-04-15T07:49:54.332Z,71.98
2018-04-15T07:51:04.515Z,71.78
2018-04-15T07:52:14.700Z,71.4
2018-04-15T07:53:24.875Z,70.92
2018-04-15T07:54:35.049Z,71.25
2018-04-15T07:55:45.256Z,70.67
2018-04-15T07:56:55.539Z,70.48
2018-04-15T07:58:05.750Z,70.48
2018-04-15T07:59:15.975Z,70.09
2018-04-15T08:00:26.165Z,70
2018-04-15T08:01:36.155Z,68.5
2018-04-15T08:02:46.334Z,68.34
2018-04-15T08:03:56.253Z,67.32
2018-04-15T08:05:06.432Z,65.94
2018-04-15T08:06:16.611Z,65.5
2018-04-15T08:07:26.800Z,64.43
2018-04-15T08:08:36.977Z,64.92
2018-04-15T08:09:47.155Z,64.63
2018-04-15T08:10:57.319Z,64.43
2018-04-15T08:12:07.511Z,64.25
2018-04-15T08:13:17.690Z,64.05
2018-04-15T08:14:27.872Z,63.28
2018-04-15T08:15:38.163Z,63.38
2018-04-15T08:16:48.349Z,62.99
2018-04-15T08:17:58.606Z,63.67
2018-04-15T08:19:08.786Z,62.9
2018-04-15T08:20:19.001Z,62.71
2018-04-15T08:21:29.267Z,62.51
2018-04-15T08:23:54.461Z,61.68
2018-04-15T08:25:04.357Z,62.54
2018-04-15T08:26:14.601Z,62.64
2018-04-15T08:27:24.818Z,62.54
2018-04-15T08:28:35.052Z,62.16
2018-04-15T08:29:46.251Z,62.16
2018-04-15T08:30:56.416Z,61.39
2018-04-15T08:32:06.628Z,61.87
2018-04-15T08:34:36.284Z,62.41
2018-04-15T08:35:46.523Z,62.51
2018-04-15T08:42:01.884Z,60.72
2018-04-15T08:43:16.773Z,60.62
2018-04-15T08:44:30.295Z,60.17
2018-04-15T08:45:41.479Z,59.81
2018-04-15T08:46:51.711Z,59.33
2018-04-15T08:48:01.955Z,59.52
2018-04-15T08:51:37.079Z,58.65
2018-04-15T08:52:47.318Z,59.04
2018-04-15T08:53:57.503Z,58.65
2018-04-15T08:55:07.685Z,57.92
2018-04-15T08:56:17.893Z,57.53
2018-04-15T08:57:28.091Z,57.46
2018-04-15T08:58:39.347Z,56.24
2018-04-15T08:59:50.646Z,55.78
2018-04-15T09:01:03.347Z,54.77
2018-04-15T09:02:13.272Z,54.61
2018-04-15T09:03:23.203Z,54.15
2018-04-15T09:04:33.419Z,53.28
2018-04-15T09:05:43.612Z,52.92
2018-04-15T09:06:55.038Z,49.68
2018-04-15T09:08:08.985Z,49.97
2018-04-15T09:09:19.167Z,49.51
2018-04-15T09:10:29.076Z,49.41
2018-04-15T09:11:39.267Z,48.27
2018-04-15T09:12:49.476Z,47.83
2018-04-15T09:13:59.650Z,46.01
2018-04-15T09:15:09.951Z,44.75
2018-04-15T09:16:20.309Z,44.65
2018-04-15T09:17:30.545Z,44.65
2018-04-15T09:18:40.617Z,43.88
2018-04-15T09:19:50.884Z,44.65
2018-04-15T09:21:00.808Z,44.65
2018-04-15T09:22:11.008Z,44.65
2018-04-15T09:23:21.323Z,44.44
2018-04-15T09:24:31.509Z,45.12
2018-04-15T09:25:41.676Z,45.1
2018-04-15T09:26:52.001Z,45.47
2018-04-15T09:28:02.255Z,46.51
2018-04-15T09:29:12.471Z,46.89
2018-04-15T09:30:22.643Z,47.38
2018-04-15T09:31:32.900Z,47.5
2018-04-15T09:32:43.126Z,46.62
2018-04-15T09:33:53.322Z,47.5
2018-04-15T09:35:03.534Z,47.02
2018-04-15T09:36:13.906Z,47.02
2018-04-15T09:37:24.123Z,46.53
2018-04-15T09:38:35.449Z,46.53
2018-04-15T09:39:45.674Z,46.24
2018-04-15T09:40:55.629Z,46.55
2018-04-15T09:42:07.239Z,45.78
2018-04-15T09:43:19.276Z,46.07
2018-04-15T09:44:33.727Z,45.58
2018-04-15T09:45:44.043Z,45.39
2018-04-15T09:46:54.299Z,45.12
2018-04-15T09:48:04.478Z,43.95
2018-04-15T09:49:14.668Z,44.65
2018-04-15T09:50:24.879Z,44.37
2018-04-15T09:51:35.053Z,42.43
2018-04-15T09:52:45.268Z,42.64
2018-04-15T09:55:31.977Z,41.47
2018-04-15T09:56:42.194Z,41.57
2018-04-15T09:57:52.453Z,41.1
2018-04-15T09:59:02.656Z,41.08
2018-04-15T10:00:12.387Z,41.3
2018-04-15T10:01:22.591Z,41.3
2018-04-15T10:02:32.891Z,41.01
2018-04-15T10:03:43.065Z,41.51
2018-04-15T10:04:53.304Z,40.93
2018-04-15T10:06:03.485Z,40.75
2018-04-15T10:07:13.653Z,40.75
2018-04-15T10:08:23.866Z,40.56
2018-04-15T10:09:37.216Z,40.47
2018-04-15T10:10:47.433Z,40.85
2018-04-15T10:11:57.469Z,40.09
2018-04-15T10:13:07.734Z,39.69
2018-04-15T10:14:18.387Z,39.88
2018-04-15T10:15:28.587Z,39.78
2018-04-15T10:16:38.852Z,40.34
2018-04-15T10:17:49.065Z,40.83
2018-04-15T10:18:59.290Z,41.1
2018-04-15T10:20:12.994Z,41.13
2018-04-15T10:21:24.990Z,41.44
2018-04-15T10:23:49.970Z,41.05
2018-04-15T10:25:00.268Z,41.24
2018-04-15T10:26:10.508Z,41.05
2018-04-15T10:27:20.706Z,40.93
2018-04-15T10:28:30.942Z,41.22
2018-04-15T10:29:41.139Z,41.13
2018-04-15T10:30:51.373Z,40.83
2018-04-15T10:32:01.579Z,40.73
2018-04-15T10:33:11.809Z,41.01
2018-04-15T10:34:22.063Z,41.49
2018-04-15T10:35:33.204Z,41.96
2018-04-15T10:36:43.448Z,42.5
2018-04-15T10:37:53.693Z,43.37
2018-04-15T10:39:04.713Z,43.64
2018-04-15T10:40:16.016Z,44.03
2018-04-15T10:41:26.250Z,44.68
2018-04-15T10:42:36.472Z,45.73
2018-04-15T10:43:46.418Z,45.83
2018-04-15T10:44:56.607Z,46.09
2018-04-15T10:46:06.528Z,46.39
2018-04-15T10:47:16.896Z,46.58
2018-04-15T10:48:27.090Z,46.58
2018-04-15T10:49:37.403Z,46.48
2018-04-15T10:50:47.626Z,46
2018-04-15T10:51:57.837Z,46.29
2018-04-15T10:53:08.024Z,46.39
2018-04-15T10:54:17.818Z,46.39
2018-04-15T10:55:28.038Z,45.61
2018-04-15T10:56:38.231Z,45.71
2018-04-15T10:57:48.436Z,45.81
2018-04-15T10:58:58.635Z,45.71
2018-04-15T11:00:08.850Z,45.81
2018-04-15T11:01:19.017Z,46.29
2018-04-15T11:02:29.205Z,46.56
2018-04-15T11:03:39.413Z,46.66
2018-04-15T11:04:49.735Z,46.26
2018-04-15T11:05:59.586Z,46.66
2018-04-15T11:07:09.815Z,46.66
2018-04-15T11:08:20.067Z,46.63
2018-04-15T11:09:30.289Z,46.34
2018-04-15T11:10:40.504Z,46.12
2018-04-15T11:11:50.707Z,47.09
2018-04-15T11:13:00.964Z,47.72
2018-04-15T11:14:11.264Z,48.39
2018-04-15T11:15:21.305Z,48.86
2018-04-15T11:16:31.485Z,49.34
2018-04-15T11:17:41.721Z,49.7
2018-04-15T11:18:52.045Z,50.57
2018-04-15T11:20:02.042Z,50.18
2018-04-15T11:21:12.314Z,50.16
2018-04-15T11:22:22.520Z,50.64
2018-04-15T11:23:32.745Z,50.74
2018-04-15T11:24:42.975Z,50.93
2018-04-15T11:25:53.260Z,51.22
2018-04-15T11:27:03.459Z,51.61
2018-04-15T11:28:13.642Z,52.09
2018-04-15T11:29:23.867Z,52.73
2018-04-15T11:30:33.807Z,52.93
2018-04-15T11:31:43.995Z,52.93
2018-04-15T11:32:54.170Z,52.64
2018-04-15T11:34:04.368Z,52.83
2018-04-15T11:35:14.580Z,53.05
2018-04-15T11:36:24.802Z,53.05
2018-04-15T11:37:34.875Z,53.05
2018-04-15T11:38:46.200Z,52.95
2018-04-15T11:39:56.458Z,53.05
2018-04-15T11:41:06.665Z,53.15
2018-04-15T11:42:16.906Z,53.31
2018-04-15T11:43:27.079Z,53.44
2018-04-15T11:44:37.344Z,53.44
2018-04-15T11:45:47.539Z,54.02
2018-04-15T11:46:57.722Z,54.02
2018-04-15T11:48:08.003Z,53.73
2018-04-15T11:49:18.175Z,54.28
2018-04-15T11:50:28.434Z,54.09
2018-04-15T11:51:38.861Z,54.31
2018-04-15T11:52:49.191Z,54.31
2018-04-15T11:53:59.395Z,53.34
2018-04-15T11:55:09.653Z,53.92
2018-04-15T11:56:19.862Z,53.44
2018-04-15T11:57:30.008Z,52.95
2018-04-15T11:58:40.278Z,52.95
2018-04-15T11:59:50.542Z,52.95
2018-04-15T12:01:00.779Z,52.95
2018-04-15T12:02:11.068Z,53.05
2018-04-15T12:03:21.463Z,53.05
2018-04-15T12:04:31.646Z,52.59
2018-04-15T12:05:41.869Z,52.5
2018-04-15T12:06:52.071Z,53.08
2018-04-15T12:08:02.260Z,52.98
2018-04-15T12:09:12.246Z,52.69
2018-04-15T12:10:22.605Z,52.79
2018-04-15T12:11:32.860Z,52.5
2018-04-15T12:12:43.096Z,52.5
2018-04-15T12:13:53.040Z,52.59
2018-04-15T12:15:03.290Z,52.69
2018-04-15T12:16:13.509Z,52.4
2018-04-15T12:17:23.788Z,52.79
2018-04-15T12:18:34.044Z,52.79
2018-04-15T12:19:44.249Z,52.98
2018-04-15T12:20:54.474Z,52.21
2018-04-15T12:22:04.697Z,52.79
2018-04-15T12:23:15.168Z,52.79
2018-04-15T12:24:25.383Z,52.79
2018-04-15T12:25:35.393Z,52.5
2018-04-15T12:26:45.713Z,51.75
2018-04-15T12:27:56.081Z,51.85
2018-04-15T12:29:06.284Z,51.85
2018-04-15T12:30:16.515Z,51.75
2018-04-15T12:31:26.762Z,52.23
2018-04-15T12:32:36.756Z,52.53
2018-04-15T12:33:47.070Z,52.62
2018-04-15T12:34:57.286Z,52.23
2018-04-15T12:36:07.529Z,52.72
2018-04-15T12:37:17.758Z,52.43
2018-04-15T12:38:27.944Z,52.72
2018-04-15T12:39:38.227Z,52.72
2018-04-15T12:40:48.470Z,52.04
2018-04-15T12:41:58.702Z,52.81
2018-04-15T12:43:08.946Z,52.59
2018-04-15T12:44:19.166Z,52.69
2018-04-15T12:45:29.377Z,52.79
2018-04-15T12:46:39.606Z,52.89
2018-04-15T12:47:49.935Z,52.98
2018-04-15T12:49:00.131Z,52.98
2018-04-15T12:50:10.135Z,53.47
2018-04-15T12:51:20.304Z,53.47
2018-04-15T12:52:30.560Z,53.66
2018-04-15T12:53:40.989Z,53.85
2018-04-15T12:54:51.216Z,53.75
2018-04-15T12:56:01.426Z,53.47
2018-04-15T12:57:11.645Z,53.66
2018-04-15T12:58:21.840Z,53.27
2018-04-15T12:59:32.145Z,53.08
2018-04-15T13:00:42.491Z,53.27
2018-04-15T13:01:52.785Z,52.98
2018-04-15T13:03:03.028Z,53.11
2018-04-15T13:04:13.248Z,53.11
2018-04-15T13:05:23.545Z,53.11
2018-04-15T13:06:33.374Z,53.23
2018-04-15T13:07:43.599Z,52.45
2018-04-15T13:08:53.839Z,51.68
2018-04-15T13:10:04.054Z,51.59
2018-04-15T13:11:14.278Z,51.29
2018-04-15T13:12:24.684Z,50.45
2018-04-15T13:13:34.911Z,50.07
2018-04-15T13:14:45.237Z,49.77
2018-04-15T13:15:55.433Z,49.77
2018-04-15T13:17:05.695Z,50.55
2018-04-15T13:18:15.987Z,50.07
2018-04-15T13:19:26.231Z,49.77
2018-04-15T13:20:36.437Z,49.87
2018-04-15T13:21:46.453Z,49.77
2018-04-15T13:22:56.699Z,49.97
2018-04-15T13:24:06.947Z,49.58
2018-04-15T13:25:17.259Z,49.97
2018-04-15T13:26:27.511Z,49.49
2018-04-15T13:27:37.721Z,49.39
2018-04-15T13:28:47.687Z,49.39
2018-04-15T13:29:57.772Z,49.58
2018-04-15T13:31:08.233Z,49.29
2018-04-15T13:32:18.219Z,49.75
2018-04-15T13:33:28.418Z,49.75
2018-04-15T13:34:38.446Z,49.46
2018-04-15T13:35:48.671Z,49.55
2018-04-15T13:36:58.943Z,49.75
2018-04-15T13:38:09.184Z,49.55
2018-04-15T13:39:19.506Z,50.13
2018-04-15T13:40:29.799Z,49.46
2018-04-15T13:41:40.047Z,49.75
2018-04-15T13:42:50.275Z,49.37
2018-04-15T13:44:00.484Z,49.37
2018-04-15T13:45:10.510Z,49.46
2018-04-15T13:46:20.738Z,49.27
2018-04-15T13:47:31.194Z,48.69
2018-04-15T13:48:41.395Z,48.59
2018-04-15T13:49:51.626Z,48.79
2018-04-15T13:51:01.879Z,48.61
2018-04-15T13:52:12.131Z,48.71
2018-04-15T13:53:22.393Z,48.69
2018-04-15T13:54:32.651Z,48.81
2018-04-15T13:55:42.290Z,48.79
2018-04-15T13:56:52.513Z,49.17
2018-04-15T13:58:02.756Z,49.07
2018-04-15T13:59:12.681Z,49.27
2018-04-15T14:00:22.968Z,49.27
2018-04-15T14:01:33.273Z,49.07
2018-04-15T14:02:43.487Z,48.97
2018-04-15T14:03:53.455Z,48.97
2018-04-15T14:05:03.862Z,48.88
2018-04-15T14:06:14.166Z,48.88
2018-04-15T14:07:24.406Z,49.37
2018-04-15T14:08:34.624Z,49.37
2018-04-15T14:09:44.863Z,49.46
2018-04-15T14:10:55.078Z,49.37
2018-04-15T14:12:05.335Z,49.27
2018-04-15T14:13:15.555Z,49.37
2018-04-15T14:14:25.567Z,49.27
2018-04-15T14:15:35.889Z,49.37
2018-04-15T14:16:46.136Z,48.97
2018-04-15T14:17:56.408Z,49.27
2018-04-15T14:19:06.650Z,49.46
2018-04-15T14:20:16.972Z,49.27
2018-04-15T14:21:27.202Z,49.75
2018-04-15T14:22:37.456Z,49.85
2018-04-15T14:23:47.674Z,50.11
2018-04-15T14:24:58.091Z,49.63
2018-04-15T14:26:08.363Z,49.63
2018-04-15T14:27:18.564Z,49.53
2018-04-15T14:28:28.528Z,50.01
2018-04-15T14:29:38.774Z,49.82
2018-04-15T14:30:48.830Z,50.11
2018-04-15T14:31:59.055Z,49.73
2018-04-15T14:33:08.375Z,50.01
2018-04-15T14:34:18.479Z,49.44
2018-04-15T14:35:28.706Z,49.73
2018-04-15T14:36:38.928Z,49.92
2018-04-15T14:37:48.839Z,49.63
2018-04-15T14:38:59.054Z,49.73
2018-04-15T14:40:09.322Z,49.15
2018-04-15T14:41:19.366Z,49.73
2018-04-15T14:42:29.663Z,49.63
2018-04-15T14:43:39.273Z,49.53
2018-04-15T14:44:49.485Z,49.63
2018-04-15T14:45:59.732Z,49.92
2018-04-15T14:47:10.070Z,49.9
2018-04-15T14:48:20.285Z,50.09
2018-04-15T14:49:30.524Z,50.47
2018-04-15T14:50:40.758Z,49.8
2018-04-15T14:51:51.065Z,50.38
2018-04-15T14:53:01.264Z,50.38
2018-04-15T14:54:11.392Z,50.28
2018-04-15T14:55:21.689Z,50.28
2018-04-15T14:56:31.881Z,50.09
2018-04-15T14:57:42.069Z,49.99
2018-04-15T14:58:52.259Z,50.28
2018-04-15T15:00:02.502Z,50.38
2018-04-15T15:01:12.732Z,50.57
2018-04-15T15:02:22.952Z,50.38
2018-04-15T15:03:33.142Z,50.38
2018-04-15T15:04:43.376Z,50.57
2018-04-15T15:05:53.590Z,50.31
2018-04-15T15:07:03.782Z,50.67
2018-04-15T15:08:14.029Z,50.28
2018-04-15T15:09:24.227Z,50.4
2018-04-15T15:10:34.440Z,50.5
2018-04-15T15:11:44.648Z,50.4
2018-04-15T15:12:54.984Z,50.69
2018-04-15T15:14:05.225Z,50.4
2018-04-15T15:15:15.465Z,50.4
2018-04-15T15:16:25.669Z,50.4
2018-04-15T15:17:35.881Z,49.82
2018-04-15T15:18:45.825Z,49.73
2018-04-15T15:19:55.849Z,49.92
2018-04-15T15:21:06.044Z,50.11